sensor_id;sensor_type;location;lat;lon;timestamp;P1;durP1;ratioP1;P2;durP2;ratioP2
77769;SDS011;66961;51.482;9.160;2023-05-29T00:00:24;14.45;;;5.72;;
77769;SDS011;66961;51.482;9.160;2023-05-29T00:02:49;9.13;;;5.20;;
77769;SDS011;66961;51.482;9.160;2023-05-29T00:05:15;10.45;;;5.68;;
77769;SDS011;66961;51.482;9.160;2023-05-29T00:07:40;9.25;;;4.93;;
77769;SDS011;66961;51.482;9.160;2023-05-29T00:10:06;12.02;;;5.70;;
77769;SDS011;66961;51.482;9.160;2023-05-29T00:12:34;10.48;;;6.07;;
77769;SDS011;66961;51.482;9.160;2023-05-29T00:15:00;10.68;;;6.10;;
77769;SDS011;66961;51.482;9.160;2023-05-29T00:17:26;9.80;;;5.30;;
77769;SDS011;66961;51.482;9.160;2023-05-29T00:19:51;10.48;;;5.03;;
77769;SDS011;66961;51.482;9.160;2023-05-29T00:22:17;10.07;;;5.13;;
77769;SDS011;66961;51.482;9.160;2023-05-29T00:24:42;11.50;;;5.22;;
77769;SDS011;66961;51.482;9.160;2023-05-29T00:27:07;9.73;;;5.37;;
77769;SDS011;66961;51.482;9.160;2023-05-29T00:29:33;11.75;;;5.80;;
77769;SDS011;66961;51.482;9.160;2023-05-29T00:31:58;11.57;;;5.43;;
77769;SDS011;66961;51.482;9.160;2023-05-29T00:34:23;10.20;;;5.70;;
77769;SDS011;66961;51.482;9.160;2023-05-29T00:36:49;12.47;;;5.40;;
77769;SDS011;66961;51.482;9.160;2023-05-29T00:39:14;11.73;;;6.22;;
77769;SDS011;66961;51.482;9.160;2023-05-29T00:41:40;10.55;;;5.43;;
77769;SDS011;66961;51.482;9.160;2023-05-29T00:44:05;11.37;;;5.93;;
77769;SDS011;66961;51.482;9.160;2023-05-29T00:46:31;9.30;;;5.50;;
77769;SDS011;66961;51.482;9.160;2023-05-29T00:48:58;10.52;;;4.90;;
77769;SDS011;66961;51.482;9.160;2023-05-29T00:51:25;11.43;;;5.18;;
77769;SDS011;66961;51.482;9.160;2023-05-29T00:53:51;8.02;;;5.10;;
77769;SDS011;66961;51.482;9.160;2023-05-29T00:56:18;7.72;;;5.05;;
77769;SDS011;66961;51.482;9.160;2023-05-29T00:58:44;11.35;;;5.38;;
77769;SDS011;66961;51.482;9.160;2023-05-29T01:01:09;10.13;;;5.38;;
77769;SDS011;66961;51.482;9.160;2023-05-29T01:03:35;11.82;;;5.25;;
77769;SDS011;66961;51.482;9.160;2023-05-29T01:06:01;10.55;;;5.85;;
77769;SDS011;66961;51.482;9.160;2023-05-29T01:08:26;11.93;;;5.75;;
77769;SDS011;66961;51.482;9.160;2023-05-29T01:10:52;14.55;;;6.10;;
77769;SDS011;66961;51.482;9.160;2023-05-29T01:13:25;10.48;;;6.18;;
77769;SDS011;66961;51.482;9.160;2023-05-29T01:15:58;10.75;;;5.47;;
77769;SDS011;66961;51.482;9.160;2023-05-29T01:18:41;10.10;;;5.38;;
77769;SDS011;66961;51.482;9.160;2023-05-29T01:29:22;10.60;;;6.20;;
77769;SDS011;66961;51.482;9.160;2023-05-29T01:31:50;10.57;;;5.70;;
77769;SDS011;66961;51.482;9.160;2023-05-29T01:34:16;11.00;;;5.22;;
77769;SDS011;66961;51.482;9.160;2023-05-29T01:36:41;12.57;;;5.33;;
77769;SDS011;66961;51.482;9.160;2023-05-29T01:39:07;11.83;;;5.37;;
77769;SDS011;66961;51.482;9.160;2023-05-29T01:41:33;9.30;;;5.07;;
77769;SDS011;66961;51.482;9.160;2023-05-29T01:44:00;12.52;;;5.95;;
77769;SDS011;66961;51.482;9.160;2023-05-29T01:46:29;10.45;;;5.35;;
77769;SDS011;66961;51.482;9.160;2023-05-29T01:48:55;9.85;;;5.10;;
77769;SDS011;66961;51.482;9.160;2023-05-29T01:51:20;10.15;;;4.90;;
77769;SDS011;66961;51.482;9.160;2023-05-29T01:53:46;10.20;;;5.85;;
77769;SDS011;66961;51.482;9.160;2023-05-29T01:56:11;10.70;;;5.35;;
77769;SDS011;66961;51.482;9.160;2023-05-29T01:58:37;12.45;;;4.88;;
77769;SDS011;66961;51.482;9.160;2023-05-29T02:01:05;9.50;;;5.53;;
77769;SDS011;66961;51.482;9.160;2023-05-29T02:03:32;11.75;;;5.00;;
77769;SDS011;66961;51.482;9.160;2023-05-29T02:05:58;7.68;;;5.38;;
77769;SDS011;66961;51.482;9.160;2023-05-29T02:08:24;11.35;;;4.95;;
77769;SDS011;66961;51.482;9.160;2023-05-29T02:10:49;15.05;;;6.10;;
77769;SDS011;66961;51.482;9.160;2023-05-29T02:13:15;10.73;;;4.90;;
77769;SDS011;66961;51.482;9.160;2023-05-29T02:15:41;9.90;;;5.25;;
77769;SDS011;66961;51.482;9.160;2023-05-29T02:18:09;9.63;;;4.65;;
77769;SDS011;66961;51.482;9.160;2023-05-29T02:20:35;11.25;;;4.90;;
77769;SDS011;66961;51.482;9.160;2023-05-29T02:23:01;9.27;;;4.37;;
77769;SDS011;66961;51.482;9.160;2023-05-29T02:25:26;7.90;;;4.93;;
77769;SDS011;66961;51.482;9.160;2023-05-29T02:27:51;9.57;;;4.47;;
77769;SDS011;66961;51.482;9.160;2023-05-29T02:30:16;8.30;;;4.70;;
77769;SDS011;66961;51.482;9.160;2023-05-29T02:32:42;12.05;;;5.03;;
77769;SDS011;66961;51.482;9.160;2023-05-29T02:35:07;9.60;;;4.70;;
77769;SDS011;66961;51.482;9.160;2023-05-29T02:37:33;11.43;;;5.20;;
77769;SDS011;66961;51.482;9.160;2023-05-29T02:39:58;13.93;;;4.87;;
77769;SDS011;66961;51.482;9.160;2023-05-29T02:42:23;9.43;;;4.50;;
77769;SDS011;66961;51.482;9.160;2023-05-29T02:44:48;10.13;;;4.03;;
77769;SDS011;66961;51.482;9.160;2023-05-29T02:47:14;10.17;;;4.47;;
77769;SDS011;66961;51.482;9.160;2023-05-29T02:49:39;12.67;;;4.30;;
77769;SDS011;66961;51.482;9.160;2023-05-29T02:52:04;9.33;;;4.30;;
77769;SDS011;66961;51.482;9.160;2023-05-29T02:54:30;11.70;;;4.72;;
77769;SDS011;66961;51.482;9.160;2023-05-29T02:56:55;10.20;;;4.43;;
77769;SDS011;66961;51.482;9.160;2023-05-29T02:59:20;9.13;;;4.57;;
77769;SDS011;66961;51.482;9.160;2023-05-29T03:01:46;8.97;;;4.17;;
77769;SDS011;66961;51.482;9.160;2023-05-29T03:04:11;14.37;;;4.43;;
77769;SDS011;66961;51.482;9.160;2023-05-29T03:06:36;9.93;;;5.13;;
77769;SDS011;66961;51.482;9.160;2023-05-29T03:09:02;9.43;;;4.00;;
77769;SDS011;66961;51.482;9.160;2023-05-29T03:11:28;12.27;;;4.35;;
77769;SDS011;66961;51.482;9.160;2023-05-29T03:13:53;10.67;;;4.17;;
77769;SDS011;66961;51.482;9.160;2023-05-29T03:16:18;13.67;;;4.40;;
77769;SDS011;66961;51.482;9.160;2023-05-29T03:18:44;9.40;;;4.33;;
77769;SDS011;66961;51.482;9.160;2023-05-29T03:21:09;13.63;;;4.47;;
77769;SDS011;66961;51.482;9.160;2023-05-29T03:23:34;16.67;;;5.63;;
77769;SDS011;66961;51.482;9.160;2023-05-29T03:25:59;12.27;;;5.17;;
77769;SDS011;66961;51.482;9.160;2023-05-29T03:28:25;12.90;;;4.73;;
77769;SDS011;66961;51.482;9.160;2023-05-29T03:30:50;16.57;;;5.07;;
77769;SDS011;66961;51.482;9.160;2023-05-29T03:33:15;11.07;;;4.57;;
77769;SDS011;66961;51.482;9.160;2023-05-29T03:35:40;9.67;;;4.20;;
77769;SDS011;66961;51.482;9.160;2023-05-29T03:38:06;12.57;;;3.87;;
77769;SDS011;66961;51.482;9.160;2023-05-29T03:40:31;11.90;;;3.73;;
77769;SDS011;66961;51.482;9.160;2023-05-29T03:42:56;10.23;;;4.40;;
77769;SDS011;66961;51.482;9.160;2023-05-29T03:45:21;12.07;;;4.23;;
77769;SDS011;66961;51.482;9.160;2023-05-29T03:47:47;13.90;;;4.07;;
77769;SDS011;66961;51.482;9.160;2023-05-29T03:50:12;12.37;;;3.80;;
77769;SDS011;66961;51.482;9.160;2023-05-29T03:52:37;10.47;;;4.20;;
77769;SDS011;66961;51.482;9.160;2023-05-29T03:55:02;10.83;;;3.67;;
77769;SDS011;66961;51.482;9.160;2023-05-29T03:57:28;11.52;;;4.15;;
77769;SDS011;66961;51.482;9.160;2023-05-29T03:59:53;13.70;;;4.07;;
77769;SDS011;66961;51.482;9.160;2023-05-29T04:02:18;18.33;;;5.00;;
77769;SDS011;66961;51.482;9.160;2023-05-29T04:04:44;10.13;;;3.63;;
77769;SDS011;66961;51.482;9.160;2023-05-29T04:07:09;12.13;;;3.67;;
77769;SDS011;66961;51.482;9.160;2023-05-29T04:09:34;13.97;;;4.00;;
77769;SDS011;66961;51.482;9.160;2023-05-29T04:11:59;10.33;;;3.50;;
77769;SDS011;66961;51.482;9.160;2023-05-29T04:14:25;11.10;;;3.45;;
77769;SDS011;66961;51.482;9.160;2023-05-29T04:16:50;12.87;;;3.80;;
77769;SDS011;66961;51.482;9.160;2023-05-29T04:19:16;14.20;;;3.97;;
77769;SDS011;66961;51.482;9.160;2023-05-29T04:21:41;9.17;;;3.40;;
77769;SDS011;66961;51.482;9.160;2023-05-29T04:24:06;10.57;;;3.50;;
77769;SDS011;66961;51.482;9.160;2023-05-29T04:26:32;10.65;;;3.40;;
77769;SDS011;66961;51.482;9.160;2023-05-29T04:28:57;9.43;;;3.60;;
77769;SDS011;66961;51.482;9.160;2023-05-29T04:31:23;9.97;;;3.70;;
77769;SDS011;66961;51.482;9.160;2023-05-29T04:33:49;11.50;;;3.28;;
77769;SDS011;66961;51.482;9.160;2023-05-29T04:36:14;10.93;;;3.57;;
77769;SDS011;66961;51.482;9.160;2023-05-29T04:38:39;9.30;;;3.80;;
77769;SDS011;66961;51.482;9.160;2023-05-29T04:41:05;9.00;;;3.00;;
77769;SDS011;66961;51.482;9.160;2023-05-29T04:43:30;11.60;;;3.70;;
77769;SDS011;66961;51.482;9.160;2023-05-29T04:45:56;10.43;;;3.10;;
77769;SDS011;66961;51.482;9.160;2023-05-29T04:48:21;8.30;;;3.13;;
77769;SDS011;66961;51.482;9.160;2023-05-29T04:50:46;11.50;;;3.50;;
77769;SDS011;66961;51.482;9.160;2023-05-29T04:53:11;12.17;;;3.27;;
77769;SDS011;66961;51.482;9.160;2023-05-29T04:55:38;8.27;;;3.10;;
77769;SDS011;66961;51.482;9.160;2023-05-29T04:58:03;9.73;;;3.37;;
77769;SDS011;66961;51.482;9.160;2023-05-29T05:00:28;12.37;;;3.40;;
77769;SDS011;66961;51.482;9.160;2023-05-29T05:02:54;8.77;;;3.60;;
77769;SDS011;66961;51.482;9.160;2023-05-29T05:05:19;10.57;;;3.00;;
77769;SDS011;66961;51.482;9.160;2023-05-29T05:07:44;9.68;;;3.42;;
77769;SDS011;66961;51.482;9.160;2023-05-29T05:10:10;7.93;;;2.90;;
77769;SDS011;66961;51.482;9.160;2023-05-29T05:12:35;8.40;;;2.72;;
77769;SDS011;66961;51.482;9.160;2023-05-29T05:15:00;10.17;;;4.03;;
77769;SDS011;66961;51.482;9.160;2023-05-29T05:17:26;9.97;;;3.23;;
77769;SDS011;66961;51.482;9.160;2023-05-29T05:19:52;12.83;;;3.33;;
77769;SDS011;66961;51.482;9.160;2023-05-29T05:22:17;9.20;;;3.10;;
77769;SDS011;66961;51.482;9.160;2023-05-29T05:24:43;11.53;;;3.37;;
77769;SDS011;66961;51.482;9.160;2023-05-29T05:27:08;9.50;;;2.60;;
77769;SDS011;66961;51.482;9.160;2023-05-29T05:29:33;10.27;;;3.37;;
77769;SDS011;66961;51.482;9.160;2023-05-29T05:31:58;11.30;;;3.30;;
77769;SDS011;66961;51.482;9.160;2023-05-29T05:34:24;10.33;;;3.40;;
77769;SDS011;66961;51.482;9.160;2023-05-29T05:36:49;12.00;;;4.07;;
77769;SDS011;66961;51.482;9.160;2023-05-29T05:39:14;10.97;;;3.53;;
77769;SDS011;66961;51.482;9.160;2023-05-29T05:41:40;5.70;;;2.73;;
77769;SDS011;66961;51.482;9.160;2023-05-29T05:44:05;11.73;;;3.43;;
77769;SDS011;66961;51.482;9.160;2023-05-29T05:46:30;6.82;;;3.15;;
77769;SDS011;66961;51.482;9.160;2023-05-29T05:48:55;7.00;;;3.30;;
77769;SDS011;66961;51.482;9.160;2023-05-29T05:51:21;10.03;;;3.20;;
77769;SDS011;66961;51.482;9.160;2023-05-29T05:53:46;8.20;;;3.10;;
77769;SDS011;66961;51.482;9.160;2023-05-29T05:56:11;7.57;;;3.30;;
77769;SDS011;66961;51.482;9.160;2023-05-29T05:58:36;6.83;;;2.60;;
77769;SDS011;66961;51.482;9.160;2023-05-29T06:01:02;9.17;;;3.67;;
77769;SDS011;66961;51.482;9.160;2023-05-29T06:03:27;8.93;;;3.27;;
77769;SDS011;66961;51.482;9.160;2023-05-29T06:05:52;8.32;;;3.05;;
77769;SDS011;66961;51.482;9.160;2023-05-29T06:08:18;7.45;;;2.70;;
77769;SDS011;66961;51.482;9.160;2023-05-29T06:10:43;6.83;;;2.80;;
77769;SDS011;66961;51.482;9.160;2023-05-29T06:13:08;5.40;;;2.80;;
77769;SDS011;66961;51.482;9.160;2023-05-29T06:15:34;8.37;;;3.13;;
77769;SDS011;66961;51.482;9.160;2023-05-29T06:17:59;8.63;;;3.27;;
77769;SDS011;66961;51.482;9.160;2023-05-29T06:20:24;9.03;;;3.20;;
77769;SDS011;66961;51.482;9.160;2023-05-29T06:22:49;9.37;;;3.27;;
77769;SDS011;66961;51.482;9.160;2023-05-29T06:25:15;7.57;;;3.40;;
77769;SDS011;66961;51.482;9.160;2023-05-29T06:27:40;8.30;;;3.70;;
77769;SDS011;66961;51.482;9.160;2023-05-29T06:30:06;6.07;;;2.97;;
77769;SDS011;66961;51.482;9.160;2023-05-29T06:32:31;9.63;;;2.97;;
77769;SDS011;66961;51.482;9.160;2023-05-29T06:34:57;10.23;;;3.03;;
77769;SDS011;66961;51.482;9.160;2023-05-29T06:37:23;5.75;;;3.00;;
77769;SDS011;66961;51.482;9.160;2023-05-29T06:39:48;7.23;;;2.83;;
77769;SDS011;66961;51.482;9.160;2023-05-29T06:42:13;10.20;;;3.07;;
77769;SDS011;66961;51.482;9.160;2023-05-29T06:44:38;9.03;;;2.97;;
77769;SDS011;66961;51.482;9.160;2023-05-29T06:47:05;9.23;;;2.70;;
77769;SDS011;66961;51.482;9.160;2023-05-29T06:49:30;9.68;;;3.25;;
77769;SDS011;66961;51.482;9.160;2023-05-29T06:51:56;8.10;;;3.10;;
77769;SDS011;66961;51.482;9.160;2023-05-29T06:54:21;7.03;;;3.00;;
77769;SDS011;66961;51.482;9.160;2023-05-29T06:56:46;6.37;;;2.93;;
77769;SDS011;66961;51.482;9.160;2023-05-29T06:59:11;8.80;;;3.30;;
77769;SDS011;66961;51.482;9.160;2023-05-29T07:01:36;10.27;;;3.40;;
77769;SDS011;66961;51.482;9.160;2023-05-29T07:04:03;10.97;;;3.10;;
77769;SDS011;66961;51.482;9.160;2023-05-29T07:06:28;7.65;;;3.00;;
77769;SDS011;66961;51.482;9.160;2023-05-29T07:08:53;9.80;;;3.53;;
77769;SDS011;66961;51.482;9.160;2023-05-29T07:11:19;8.20;;;2.77;;
77769;SDS011;66961;51.482;9.160;2023-05-29T07:13:44;8.30;;;3.17;;
77769;SDS011;66961;51.482;9.160;2023-05-29T07:16:09;7.53;;;2.80;;
77769;SDS011;66961;51.482;9.160;2023-05-29T07:18:34;8.97;;;3.00;;
77769;SDS011;66961;51.482;9.160;2023-05-29T07:21:00;8.80;;;3.07;;
77769;SDS011;66961;51.482;9.160;2023-05-29T07:23:25;11.60;;;3.63;;
77769;SDS011;66961;51.482;9.160;2023-05-29T07:25:51;9.90;;;3.30;;
77769;SDS011;66961;51.482;9.160;2023-05-29T07:28:16;6.67;;;2.67;;
77769;SDS011;66961;51.482;9.160;2023-05-29T07:30:41;7.67;;;3.53;;
77769;SDS011;66961;51.482;9.160;2023-05-29T07:33:06;10.70;;;3.23;;
77769;SDS011;66961;51.482;9.160;2023-05-29T07:35:32;9.48;;;3.30;;
77769;SDS011;66961;51.482;9.160;2023-05-29T07:37:57;14.93;;;4.18;;
77769;SDS011;66961;51.482;9.160;2023-05-29T07:40:23;8.00;;;2.78;;
77769;SDS011;66961;51.482;9.160;2023-05-29T07:42:48;7.67;;;3.20;;
77769;SDS011;66961;51.482;9.160;2023-05-29T07:45:13;9.27;;;3.07;;
77769;SDS011;66961;51.482;9.160;2023-05-29T07:47:38;7.67;;;2.77;;
77769;SDS011;66961;51.482;9.160;2023-05-29T07:50:04;7.40;;;3.13;;
77769;SDS011;66961;51.482;9.160;2023-05-29T07:52:29;7.47;;;3.00;;
77769;SDS011;66961;51.482;9.160;2023-05-29T07:54:55;9.30;;;3.87;;
77769;SDS011;66961;51.482;9.160;2023-05-29T07:57:20;9.07;;;3.00;;
77769;SDS011;66961;51.482;9.160;2023-05-29T07:59:45;9.13;;;3.47;;
77769;SDS011;66961;51.482;9.160;2023-05-29T08:02:11;8.07;;;2.70;;
77769;SDS011;66961;51.482;9.160;2023-05-29T08:04:36;6.43;;;2.67;;
77769;SDS011;66961;51.482;9.160;2023-05-29T08:07:01;7.83;;;2.60;;
77769;SDS011;66961;51.482;9.160;2023-05-29T08:09:27;9.45;;;3.03;;
77769;SDS011;66961;51.482;9.160;2023-05-29T08:11:52;9.80;;;2.97;;
77769;SDS011;66961;51.482;9.160;2023-05-29T08:14:18;7.43;;;2.93;;
77769;SDS011;66961;51.482;9.160;2023-05-29T08:16:43;9.07;;;3.10;;
77769;SDS011;66961;51.482;9.160;2023-05-29T08:19:08;8.13;;;2.87;;
77769;SDS011;66961;51.482;9.160;2023-05-29T08:21:34;8.82;;;2.72;;
77769;SDS011;66961;51.482;9.160;2023-05-29T08:23:59;10.50;;;3.33;;
77769;SDS011;66961;51.482;9.160;2023-05-29T08:26:25;6.22;;;2.72;;
77769;SDS011;66961;51.482;9.160;2023-05-29T08:28:51;11.55;;;3.08;;
77769;SDS011;66961;51.482;9.160;2023-05-29T08:31:16;6.65;;;2.40;;
77769;SDS011;66961;51.482;9.160;2023-05-29T08:33:42;9.43;;;3.35;;
77769;SDS011;66961;51.482;9.160;2023-05-29T08:36:07;7.60;;;2.63;;
77769;SDS011;66961;51.482;9.160;2023-05-29T08:38:32;7.22;;;3.00;;
77769;SDS011;66961;51.482;9.160;2023-05-29T08:40:58;11.17;;;3.37;;
77769;SDS011;66961;51.482;9.160;2023-05-29T08:43:24;8.93;;;2.80;;
77769;SDS011;66961;51.482;9.160;2023-05-29T08:45:54;5.18;;;2.70;;
77769;SDS011;66961;51.482;9.160;2023-05-29T08:48:24;6.63;;;2.67;;
77769;SDS011;66961;51.482;9.160;2023-05-29T08:50:49;6.88;;;2.95;;
77769;SDS011;66961;51.482;9.160;2023-05-29T08:53:17;9.15;;;3.15;;
77769;SDS011;66961;51.482;9.160;2023-05-29T08:55:43;5.07;;;2.88;;
77769;SDS011;66961;51.482;9.160;2023-05-29T08:58:08;8.38;;;3.28;;
77769;SDS011;66961;51.482;9.160;2023-05-29T09:00:36;8.40;;;3.00;;
77769;SDS011;66961;51.482;9.160;2023-05-29T09:03:01;10.00;;;2.80;;
77769;SDS011;66961;51.482;9.160;2023-05-29T09:05:26;9.10;;;2.60;;
77769;SDS011;66961;51.482;9.160;2023-05-29T09:07:52;7.20;;;3.30;;
77769;SDS011;66961;51.482;9.160;2023-05-29T09:10:17;8.35;;;3.13;;
77769;SDS011;66961;51.482;9.160;2023-05-29T09:12:44;7.88;;;2.75;;
77769;SDS011;66961;51.482;9.160;2023-05-29T09:15:16;7.60;;;2.97;;
77769;SDS011;66961;51.482;9.160;2023-05-29T09:17:56;6.53;;;3.00;;
77769;SDS011;66961;51.482;9.160;2023-05-29T09:20:22;8.45;;;2.97;;
77769;SDS011;66961;51.482;9.160;2023-05-29T09:22:58;9.57;;;3.08;;
77769;SDS011;66961;51.482;9.160;2023-05-29T09:25:25;9.20;;;3.13;;
77769;SDS011;66961;51.482;9.160;2023-05-29T09:27:53;8.52;;;3.50;;
77769;SDS011;66961;51.482;9.160;2023-05-29T09:30:30;7.18;;;2.80;;
77769;SDS011;66961;51.482;9.160;2023-05-29T09:33:06;6.20;;;2.78;;
77769;SDS011;66961;51.482;9.160;2023-05-29T09:35:34;9.73;;;3.28;;
77769;SDS011;66961;51.482;9.160;2023-05-29T09:38:00;8.15;;;3.03;;
77769;SDS011;66961;51.482;9.160;2023-05-29T09:40:26;6.82;;;2.83;;
77769;SDS011;66961;51.482;9.160;2023-05-29T09:42:54;8.05;;;2.75;;
77769;SDS011;66961;51.482;9.160;2023-05-29T09:45:21;7.70;;;3.03;;
77769;SDS011;66961;51.482;9.160;2023-05-29T09:47:47;9.07;;;2.58;;
77769;SDS011;66961;51.482;9.160;2023-05-29T09:50:18;7.85;;;3.10;;
77769;SDS011;66961;51.482;9.160;2023-05-29T09:52:44;6.38;;;3.00;;
77769;SDS011;66961;51.482;9.160;2023-05-29T09:55:09;7.55;;;3.03;;
77769;SDS011;66961;51.482;9.160;2023-05-29T09:57:35;8.57;;;3.30;;
77769;SDS011;66961;51.482;9.160;2023-05-29T10:00:00;7.75;;;2.80;;
77769;SDS011;66961;51.482;9.160;2023-05-29T10:02:26;8.20;;;3.20;;
77769;SDS011;66961;51.482;9.160;2023-05-29T10:04:52;7.57;;;2.50;;
77769;SDS011;66961;51.482;9.160;2023-05-29T10:07:20;5.13;;;2.57;;
77769;SDS011;66961;51.482;9.160;2023-05-29T10:09:52;6.93;;;2.50;;
77769;SDS011;66961;51.482;9.160;2023-05-29T10:12:23;7.07;;;2.65;;
77769;SDS011;66961;51.482;9.160;2023-05-29T10:14:49;7.55;;;2.65;;
77769;SDS011;66961;51.482;9.160;2023-05-29T10:17:19;8.10;;;3.17;;
77769;SDS011;66961;51.482;9.160;2023-05-29T10:19:50;8.02;;;2.95;;
77769;SDS011;66961;51.482;9.160;2023-05-29T10:22:20;6.80;;;3.28;;
77769;SDS011;66961;51.482;9.160;2023-05-29T10:24:48;9.02;;;3.70;;
77769;SDS011;66961;51.482;9.160;2023-05-29T10:27:16;8.27;;;2.97;;
77769;SDS011;66961;51.482;9.160;2023-05-29T10:32:28;9.00;;;2.88;;
77769;SDS011;66961;51.482;9.160;2023-05-29T10:35:17;5.53;;;2.40;;
77769;SDS011;66961;51.482;9.160;2023-05-29T10:38:00;9.40;;;3.20;;
77769;SDS011;66961;51.482;9.160;2023-05-29T10:40:35;8.07;;;3.00;;
77769;SDS011;66961;51.482;9.160;2023-05-29T10:43:00;10.43;;;3.10;;
77769;SDS011;66961;51.482;9.160;2023-05-29T10:47:54;5.03;;;2.20;;
77769;SDS011;66961;51.482;9.160;2023-05-29T10:53:03;9.57;;;3.08;;
77769;SDS011;66961;51.482;9.160;2023-05-29T10:57:17;6.82;;;2.83;;
77769;SDS011;66961;51.482;9.160;2023-05-29T10:59:44;9.80;;;3.08;;
77769;SDS011;66961;51.482;9.160;2023-05-29T11:02:10;8.00;;;2.70;;
77769;SDS011;66961;51.482;9.160;2023-05-29T11:04:36;8.20;;;2.53;;
77769;SDS011;66961;51.482;9.160;2023-05-29T11:07:01;5.70;;;2.33;;
77769;SDS011;66961;51.482;9.160;2023-05-29T11:14:45;7.78;;;3.05;;
77769;SDS011;66961;51.482;9.160;2023-05-29T11:17:28;8.95;;;3.03;;
77769;SDS011;66961;51.482;9.160;2023-05-29T11:19:57;8.57;;;3.20;;
77769;SDS011;66961;51.482;9.160;2023-05-29T11:22:27;7.05;;;2.97;;
77769;SDS011;66961;51.482;9.160;2023-05-29T11:24:59;8.65;;;3.08;;
77769;SDS011;66961;51.482;9.160;2023-05-29T11:27:24;7.32;;;2.97;;
77769;SDS011;66961;51.482;9.160;2023-05-29T11:29:50;8.50;;;3.08;;
77769;SDS011;66961;51.482;9.160;2023-05-29T11:32:16;6.45;;;2.83;;
77769;SDS011;66961;51.482;9.160;2023-05-29T11:34:41;7.95;;;2.78;;
77769;SDS011;66961;51.482;9.160;2023-05-29T11:37:10;6.03;;;2.78;;
77769;SDS011;66961;51.482;9.160;2023-05-29T11:39:36;7.10;;;3.25;;
77769;SDS011;66961;51.482;9.160;2023-05-29T11:42:02;7.95;;;2.63;;
77769;SDS011;66961;51.482;9.160;2023-05-29T11:44:28;8.98;;;3.20;;
77769;SDS011;66961;51.482;9.160;2023-05-29T11:47:06;8.25;;;2.95;;
77769;SDS011;66961;51.482;9.160;2023-05-29T11:49:33;6.28;;;2.53;;
77769;SDS011;66961;51.482;9.160;2023-05-29T11:52:06;6.40;;;2.40;;
77769;SDS011;66961;51.482;9.160;2023-05-29T11:54:33;7.10;;;2.75;;
77769;SDS011;66961;51.482;9.160;2023-05-29T11:56:59;5.20;;;2.40;;
77769;SDS011;66961;51.482;9.160;2023-05-29T11:59:25;7.43;;;2.53;;
77769;SDS011;66961;51.482;9.160;2023-05-29T12:01:53;8.23;;;3.00;;
77769;SDS011;66961;51.482;9.160;2023-05-29T12:04:19;9.02;;;2.90;;
77769;SDS011;66961;51.482;9.160;2023-05-29T12:06:44;7.97;;;2.67;;
77769;SDS011;66961;51.482;9.160;2023-05-29T12:09:09;5.95;;;2.47;;
77769;SDS011;66961;51.482;9.160;2023-05-29T12:11:49;6.65;;;3.20;;
77769;SDS011;66961;51.482;9.160;2023-05-29T12:14:15;6.18;;;2.45;;
77769;SDS011;66961;51.482;9.160;2023-05-29T12:16:40;5.63;;;2.40;;
77769;SDS011;66961;51.482;9.160;2023-05-29T12:19:06;6.35;;;2.40;;
77769;SDS011;66961;51.482;9.160;2023-05-29T12:21:31;6.82;;;3.00;;
77769;SDS011;66961;51.482;9.160;2023-05-29T12:23:57;6.82;;;2.50;;
77769;SDS011;66961;51.482;9.160;2023-05-29T12:26:23;6.53;;;2.53;;
77769;SDS011;66961;51.482;9.160;2023-05-29T12:28:50;6.65;;;2.65;;
77769;SDS011;66961;51.482;9.160;2023-05-29T12:31:25;8.90;;;3.10;;
77769;SDS011;66961;51.482;9.160;2023-05-29T12:33:51;7.20;;;2.80;;
77769;SDS011;66961;51.482;9.160;2023-05-29T12:36:17;7.60;;;2.60;;
77769;SDS011;66961;51.482;9.160;2023-05-29T12:38:51;8.77;;;3.17;;
77769;SDS011;66961;51.482;9.160;2023-05-29T12:43:56;6.95;;;2.30;;
77769;SDS011;66961;51.482;9.160;2023-05-29T12:46:23;6.57;;;2.50;;
77769;SDS011;66961;51.482;9.160;2023-05-29T12:48:52;6.25;;;2.60;;
77769;SDS011;66961;51.482;9.160;2023-05-29T12:51:22;5.55;;;2.63;;
77769;SDS011;66961;51.482;9.160;2023-05-29T12:53:49;6.45;;;2.22;;
77769;SDS011;66961;51.482;9.160;2023-05-29T12:56:14;6.32;;;2.80;;
77769;SDS011;66961;51.482;9.160;2023-05-29T12:58:39;4.43;;;2.40;;
77769;SDS011;66961;51.482;9.160;2023-05-29T13:01:05;5.60;;;2.53;;
77769;SDS011;66961;51.482;9.160;2023-05-29T13:03:37;6.05;;;2.60;;
77769;SDS011;66961;51.482;9.160;2023-05-29T13:06:02;5.65;;;2.47;;
77769;SDS011;66961;51.482;9.160;2023-05-29T13:08:28;7.60;;;3.15;;
77769;SDS011;66961;51.482;9.160;2023-05-29T13:10:53;5.55;;;2.85;;
77769;SDS011;66961;51.482;9.160;2023-05-29T13:13:18;5.47;;;2.63;;
77769;SDS011;66961;51.482;9.160;2023-05-29T13:15:44;6.78;;;3.00;;
77769;SDS011;66961;51.482;9.160;2023-05-29T13:18:09;6.93;;;3.28;;
77769;SDS011;66961;51.482;9.160;2023-05-29T13:20:34;5.53;;;2.47;;
77769;SDS011;66961;51.482;9.160;2023-05-29T13:22:59;4.65;;;2.47;;
77769;SDS011;66961;51.482;9.160;2023-05-29T13:25:25;6.10;;;2.65;;
77769;SDS011;66961;51.482;9.160;2023-05-29T13:27:50;5.38;;;2.78;;
77769;SDS011;66961;51.482;9.160;2023-05-29T13:30:16;8.18;;;2.85;;
77769;SDS011;66961;51.482;9.160;2023-05-29T13:32:42;5.30;;;2.70;;
77769;SDS011;66961;51.482;9.160;2023-05-29T13:35:08;6.63;;;2.95;;
77769;SDS011;66961;51.482;9.160;2023-05-29T13:37:34;6.03;;;2.40;;
77769;SDS011;66961;51.482;9.160;2023-05-29T13:40:00;5.90;;;2.67;;
77769;SDS011;66961;51.482;9.160;2023-05-29T13:42:26;6.53;;;2.88;;
77769;SDS011;66961;51.482;9.160;2023-05-29T13:44:52;5.82;;;2.67;;
77769;SDS011;66961;51.482;9.160;2023-05-29T13:47:18;5.65;;;2.60;;
77769;SDS011;66961;51.482;9.160;2023-05-29T13:49:43;6.20;;;2.70;;
77769;SDS011;66961;51.482;9.160;2023-05-29T13:52:08;6.05;;;2.42;;
77769;SDS011;66961;51.482;9.160;2023-05-29T13:54:38;6.25;;;2.50;;
77769;SDS011;66961;51.482;9.160;2023-05-29T13:57:04;6.25;;;2.38;;
77769;SDS011;66961;51.482;9.160;2023-05-29T13:59:34;4.80;;;2.45;;
77769;SDS011;66961;51.482;9.160;2023-05-29T14:02:00;5.50;;;2.70;;
77769;SDS011;66961;51.482;9.160;2023-05-29T14:04:25;5.25;;;2.70;;
77769;SDS011;66961;51.482;9.160;2023-05-29T14:06:51;5.47;;;2.90;;
77769;SDS011;66961;51.482;9.160;2023-05-29T14:09:17;4.90;;;2.50;;
77769;SDS011;66961;51.482;9.160;2023-05-29T14:11:43;4.60;;;2.38;;
77769;SDS011;66961;51.482;9.160;2023-05-29T14:14:08;4.53;;;2.50;;
77769;SDS011;66961;51.482;9.160;2023-05-29T14:16:34;4.25;;;2.40;;
77769;SDS011;66961;51.482;9.160;2023-05-29T14:18:59;6.00;;;2.70;;
77769;SDS011;66961;51.482;9.160;2023-05-29T14:21:25;6.10;;;3.00;;
77769;SDS011;66961;51.482;9.160;2023-05-29T14:23:50;6.70;;;3.03;;
77769;SDS011;66961;51.482;9.160;2023-05-29T14:26:16;4.28;;;2.40;;
77769;SDS011;66961;51.482;9.160;2023-05-29T14:28:41;5.82;;;2.65;;
77769;SDS011;66961;51.482;9.160;2023-05-29T14:31:06;4.90;;;2.55;;
77769;SDS011;66961;51.482;9.160;2023-05-29T14:33:32;6.45;;;2.65;;
77769;SDS011;66961;51.482;9.160;2023-05-29T14:35:57;4.47;;;2.50;;
77769;SDS011;66961;51.482;9.160;2023-05-29T14:38:23;3.95;;;2.30;;
77769;SDS011;66961;51.482;9.160;2023-05-29T14:40:49;4.38;;;2.40;;
77769;SDS011;66961;51.482;9.160;2023-05-29T14:43:14;6.80;;;2.65;;
77769;SDS011;66961;51.482;9.160;2023-05-29T14:45:40;5.78;;;2.30;;
77769;SDS011;66961;51.482;9.160;2023-05-29T14:48:05;5.47;;;2.80;;
77769;SDS011;66961;51.482;9.160;2023-05-29T14:50:30;6.28;;;2.80;;
77769;SDS011;66961;51.482;9.160;2023-05-29T14:52:56;4.18;;;2.50;;
77769;SDS011;66961;51.482;9.160;2023-05-29T14:55:21;5.10;;;2.70;;
77769;SDS011;66961;51.482;9.160;2023-05-29T14:57:46;4.90;;;2.10;;
77769;SDS011;66961;51.482;9.160;2023-05-29T15:00:12;4.38;;;2.63;;
77769;SDS011;66961;51.482;9.160;2023-05-29T15:02:37;4.97;;;2.60;;